createdAt,value
2023-01-19T00:01:59.489Z,101318.75
2023-01-19T00:04:30.109Z,101324.63
2023-01-19T00:07:02.693Z,101327.19
2023-01-19T00:09:34.374Z,101327.19
2023-01-19T00:12:05.849Z,101338.94
2023-01-19T00:14:36.245Z,101327.81
2023-01-19T00:17:07.167Z,101326.84
2023-01-19T00:19:37.499Z,101331.91
2023-01-19T00:22:08.658Z,101346.06
2023-01-19T00:24:39.477Z,101349.75
2023-01-19T00:27:10.254Z,101350.09
2023-01-19T00:29:41.177Z,101348.09
2023-01-19T00:32:13.861Z,101347.09
2023-01-19T00:34:50.252Z,101353.81
2023-01-19T00:37:21.749Z,101354.63
2023-01-19T00:39:54.951Z,101358.38
2023-01-19T00:42:44.001Z,101349.47
2023-01-19T00:45:17.742Z,101347.19
2023-01-19T00:47:50.111Z,101368.72
2023-01-19T00:50:20.716Z,101355.63
2023-01-19T00:52:51.912Z,101364.38
2023-01-19T00:55:23.118Z,101354.97
2023-01-19T00:57:54.328Z,101353.16
2023-01-19T01:00:25.836Z,101362.81
2023-01-19T01:02:57.791Z,101355.75
2023-01-19T01:05:28.237Z,101362.34
2023-01-19T01:07:58.527Z,101361.69
2023-01-19T01:10:30.622Z,101364.88
2023-01-19T01:13:21.081Z,101362.84
2023-01-19T01:15:53.399Z,101357.63
2023-01-19T01:18:24.696Z,101365.19
2023-01-19T01:21:02.911Z,101358.53
2023-01-19T01:23:33.786Z,101362.91
2023-01-19T01:26:04.469Z,101349.09
2023-01-19T01:28:34.790Z,101352.16
2023-01-19T01:31:05.550Z,101337.66
2023-01-19T01:33:40.690Z,101339.84
2023-01-19T01:36:13.351Z,101334.78
2023-01-19T01:38:47.168Z,101325.69
2023-01-19T01:41:17.906Z,101334.97
2023-01-19T01:44:02.691Z,101330.28
2023-01-19T01:46:33.411Z,101332.63
2023-01-19T01:49:24.120Z,101337.34
2023-01-19T01:51:55.441Z,101339.72
2023-01-19T01:54:31.343Z,101345.78
2023-01-19T01:57:05.337Z,101333.31
2023-01-19T01:59:42.016Z,101335.00
2023-01-19T02:02:44.554Z,101333.97
2023-01-19T02:05:34.443Z,101341.06
2023-01-19T02:08:47.022Z,101329.06
2023-01-19T02:11:36.799Z,101318.84
2023-01-19T02:14:07.813Z,101316.81
2023-01-19T02:16:39.199Z,101318.50
2023-01-19T02:19:14.529Z,101317.31
2023-01-19T02:22:15.893Z,101320.81
2023-01-19T02:24:46.445Z,101318.13
2023-01-19T02:27:18.720Z,101311.88
2023-01-19T02:29:49.520Z,101313.72
2023-01-19T02:32:19.919Z,101313.03
2023-01-19T02:34:50.897Z,101307.16
2023-01-19T02:37:22.090Z,101310.84
2023-01-19T02:39:58.619Z,101312.38
2023-01-19T02:42:47.419Z,101300.75
2023-01-19T02:45:24.298Z,101296.00
2023-01-19T02:47:54.888Z,101295.66
2023-01-19T02:50:38.272Z,101295.50
2023-01-19T02:53:09.182Z,101292.13
2023-01-19T02:55:40.009Z,101287.41
2023-01-19T02:58:21.891Z,101288.09
2023-01-19T03:00:58.254Z,101278.66
2023-01-19T03:03:33.320Z,101279.66
2023-01-19T03:06:24.233Z,101263.78
2023-01-19T03:09:13.807Z,101270.03
2023-01-19T03:11:48.636Z,101259.25
2023-01-19T03:14:24.587Z,101259.03
2023-01-19T03:16:59.206Z,101266.13
2023-01-19T03:19:43.910Z,101253.31
2023-01-19T03:22:24.220Z,101245.88
2023-01-19T03:25:00.712Z,101242.16
2023-01-19T03:27:42.162Z,101241.50
2023-01-19T03:30:26.088Z,101240.13
2023-01-19T03:33:02.724Z,101224.97
2023-01-19T03:35:36.314Z,101216.22
2023-01-19T03:38:09.667Z,101222.81
2023-01-19T03:40:41.081Z,101208.13
2023-01-19T03:43:12.028Z,101209.78
2023-01-19T03:45:44.790Z,101198.84
2023-01-19T03:48:16.041Z,101206.44
2023-01-19T03:50:46.936Z,101202.72
2023-01-19T03:53:20.581Z,101199.50
2023-01-19T03:55:58.844Z,101192.53
2023-01-19T03:58:29.613Z,101186.78
2023-01-19T04:01:02.852Z,101191.81
2023-01-19T04:03:34.517Z,101176.97
2023-01-19T04:06:05.037Z,101174.56
2023-01-19T04:08:36.153Z,101173.41
2023-01-19T04:11:06.806Z,101165.31
2023-01-19T04:13:37.812Z,101161.22
2023-01-19T04:16:08.805Z,101157.34
2023-01-19T04:18:39.728Z,101154.66
2023-01-19T04:21:10.616Z,101153.09
2023-01-19T04:23:41.326Z,101142.47
2023-01-19T04:26:14.863Z,101146.56
2023-01-19T04:28:45.980Z,101129.66
2023-01-19T04:31:16.661Z,101124.19
2023-01-19T04:33:47.257Z,101126.47
2023-01-19T04:36:18.394Z,101109.56
2023-01-19T04:38:49.595Z,101098.97
2023-01-19T04:41:20.387Z,101111.06
2023-01-19T04:43:51.228Z,101104.38
2023-01-19T04:46:22.230Z,101093.94
2023-01-19T04:48:53.600Z,101092.25
2023-01-19T04:51:24.191Z,101091.59
2023-01-19T04:53:54.883Z,101083.50
2023-01-19T04:56:25.319Z,101084.31
2023-01-19T04:58:56.480Z,101068.31
2023-01-19T05:01:26.969Z,101071.84
2023-01-19T05:04:00.737Z,101076.41
2023-01-19T05:06:31.960Z,101062.91
2023-01-19T05:09:02.900Z,101062.63
2023-01-19T05:11:33.532Z,101055.53
2023-01-19T05:14:05.980Z,101045.09
2023-01-19T05:16:37.662Z,101043.34
2023-01-19T05:19:08.123Z,101035.69
2023-01-19T05:21:38.548Z,101032.84
2023-01-19T05:24:09.388Z,101031.16
2023-01-19T05:26:48.760Z,101026.56
2023-01-19T05:29:19.221Z,101027.81
2023-01-19T05:31:49.928Z,101019.63
2023-01-19T05:34:20.468Z,101022.97
2023-01-19T05:36:52.448Z,101017.56
2023-01-19T05:39:23.162Z,101020.91
2023-01-19T05:41:53.619Z,101006.38
2023-01-19T05:44:24.580Z,101007.00
2023-01-19T05:46:55.048Z,100995.59
2023-01-19T05:49:26.016Z,101002.63
2023-01-19T05:51:57.022Z,100998.91
2023-01-19T05:54:27.636Z,100992.22
2023-01-19T05:56:58.678Z,100996.47
2023-01-19T05:59:29.186Z,100993.59
2023-01-19T06:02:01.015Z,100989.66
2023-01-19T06:04:31.594Z,100992.38
2023-01-19T06:07:03.216Z,100997.59
2023-01-19T06:09:34.944Z,100996.38
2023-01-19T06:12:06.053Z,100987.44
2023-01-19T06:14:37.955Z,100996.59
2023-01-19T06:17:09.715Z,100993.03
2023-01-19T06:19:40.218Z,100996.59
2023-01-19T06:22:10.945Z,100999.06
2023-01-19T06:24:42.396Z,100995.63
2023-01-19T06:27:12.748Z,100983.78
2023-01-19T06:29:43.697Z,100988.16
2023-01-19T06:32:14.167Z,100993.56
2023-01-19T06:34:45.123Z,100994.59
2023-01-19T06:37:17.668Z,101000.13
2023-01-19T06:39:47.904Z,101008.41
2023-01-19T06:42:18.365Z,101000.97
2023-01-19T06:44:49.143Z,101007.00
2023-01-19T06:47:19.966Z,101007.22
2023-01-19T06:49:51.372Z,101003.66
2023-01-19T06:52:21.946Z,101001.34
2023-01-19T06:54:54.632Z,101001.34
2023-01-19T06:57:27.265Z,101000.22
2023-01-19T06:59:59.794Z,101006.16
2023-01-19T07:02:31.112Z,101004.69
2023-01-19T07:05:04.122Z,101008.59
2023-01-19T07:07:34.747Z,101014.38
2023-01-19T07:10:05.177Z,101012.25
2023-01-19T07:12:36.363Z,101008.31
2023-01-19T07:15:08.536Z,101009.34
2023-01-19T07:17:39.882Z,101008.88
2023-01-19T07:20:15.472Z,101015.09
2023-01-19T07:22:49.940Z,101007.41
2023-01-19T07:25:22.120Z,101024.25
2023-01-19T07:27:53.022Z,101018.38
2023-01-19T07:30:23.797Z,101021.28
2023-01-19T07:32:58.805Z,101026.41
2023-01-19T07:35:30.630Z,101022.03
2023-01-19T07:38:07.153Z,101028.47
2023-01-19T07:40:37.770Z,101034.50
2023-01-19T07:43:08.606Z,101027.88
2023-01-19T07:45:39.405Z,101030.88
2023-01-19T07:48:12.003Z,101032.47
2023-01-19T07:50:43.248Z,101029.09
2023-01-19T07:53:14.301Z,101020.72
2023-01-19T07:55:45.329Z,101022.94
2023-01-19T07:58:16.157Z,101029.56
2023-01-19T08:00:47.065Z,101016.44
2023-01-19T08:03:18.789Z,101018.47
2023-01-19T08:05:53.870Z,101024.53
2023-01-19T08:08:24.596Z,101026.38
2023-01-19T08:10:55.537Z,101020.97
2023-01-19T08:13:27.268Z,101023.22
2023-01-19T08:15:58.644Z,101023.22
2023-01-19T08:18:29.342Z,101026.25
2023-01-19T08:21:03.112Z,101028.31
2023-01-19T08:23:33.422Z,101033.88
2023-01-19T08:26:04.541Z,101036.78
2023-01-19T08:28:35.501Z,101040.28
2023-01-19T08:31:19.232Z,101039.47
2023-01-19T08:33:51.648Z,101043.56
2023-01-19T08:36:23.733Z,101046.25
2023-01-19T08:38:54.626Z,101041.88
2023-01-19T08:41:25.758Z,101044.94
2023-01-19T08:43:56.392Z,101044.94
2023-01-19T08:46:28.165Z,101037.66
2023-01-19T08:48:58.759Z,101036.84
2023-01-19T08:51:29.426Z,101033.59
2023-01-19T08:53:59.998Z,101038.16
2023-01-19T08:56:33.309Z,101033.88
2023-01-19T08:59:09.914Z,101043.19
2023-01-19T09:01:42.388Z,101054.81
2023-01-19T09:04:15.915Z,101056.03
2023-01-19T09:06:46.696Z,101052.69
2023-01-19T09:09:17.430Z,101062.09
2023-01-19T09:11:48.343Z,101058.53
2023-01-19T09:14:20.477Z,101059.75
2023-01-19T09:16:54.003Z,101056.56
2023-01-19T09:19:24.253Z,101059.63
2023-01-19T09:21:55.894Z,101059.16
2023-01-19T09:24:26.722Z,101055.81
2023-01-19T09:26:59.459Z,101059.53
2023-01-19T09:29:32.966Z,101055.69
2023-01-19T09:32:04.674Z,101060.63
2023-01-19T09:34:35.160Z,101067.03
2023-01-19T09:37:05.819Z,101066.03
2023-01-19T09:39:36.456Z,101066.38
2023-01-19T09:42:21.878Z,101064.34
2023-01-19T09:44:55.861Z,101068.41
2023-01-19T09:47:29.891Z,101070.75
2023-01-19T09:50:28.358Z,101084.25
2023-01-19T09:53:03.843Z,101072.13
2023-01-19T09:55:34.428Z,101070.81
2023-01-19T09:58:09.700Z,101073.06
2023-01-19T10:00:43.586Z,101080.66
2023-01-19T10:03:17.702Z,101073.25
2023-01-19T10:06:04.437Z,101073.22
2023-01-19T10:08:41.312Z,101074.59
2023-01-19T10:11:52.672Z,101068.69
2023-01-19T10:14:33.191Z,101065.75
2023-01-19T10:17:22.070Z,101077.66
2023-01-19T10:19:55.361Z,101077.00
2023-01-19T10:22:28.998Z,101075.69
2023-01-19T10:25:08.732Z,101071.97
2023-01-19T10:27:39.777Z,101081.94
2023-01-19T10:30:11.685Z,101080.41
2023-01-19T10:32:42.273Z,101088.50
2023-01-19T10:35:36.070Z,101102.00
2023-01-19T10:38:07.664Z,101099.66
2023-01-19T10:40:54.687Z,101095.28
2023-01-19T10:43:46.560Z,101097.63
2023-01-19T10:46:24.319Z,101092.56
2023-01-19T10:48:55.797Z,101100.72
2023-01-19T10:51:26.466Z,101092.56
2023-01-19T10:54:05.229Z,101100.63
2023-01-19T10:56:40.132Z,101106.31
2023-01-19T10:59:32.949Z,101116.94
2023-01-19T11:02:28.535Z,101109.88
2023-01-19T11:05:23.428Z,101120.53
2023-01-19T11:07:56.512Z,101128.44
2023-01-19T11:10:30.373Z,101125.75
2023-01-19T11:13:16.677Z,101127.13
2023-01-19T11:15:49.895Z,101125.44
2023-01-19T11:18:37.803Z,101134.03
2023-01-19T11:21:10.907Z,101145.19
2023-01-19T11:23:51.987Z,101151.25
2023-01-19T11:26:43.873Z,101149.53
2023-01-19T11:29:22.242Z,101146.88
2023-01-19T11:31:54.314Z,101137.75
2023-01-19T11:34:33.785Z,101153.16
2023-01-19T11:37:31.582Z,101165.78
2023-01-19T11:40:03.845Z,101165.78
2023-01-19T11:42:37.574Z,101172.22
2023-01-19T11:45:19.395Z,101175.56
2023-01-19T11:47:52.784Z,101178.94
2023-01-19T11:50:28.867Z,101180.97
2023-01-19T11:53:18.648Z,101176.91
2023-01-19T11:55:58.588Z,101182.97
2023-01-19T11:58:29.155Z,101182.84
2023-01-19T12:01:08.827Z,101187.72
2023-01-19T12:04:05.419Z,101186.22
2023-01-19T12:06:40.424Z,101184.19
2023-01-19T12:09:22.916Z,101182.31
2023-01-19T12:12:05.088Z,101181.66
2023-01-19T12:14:41.827Z,101180.50
2023-01-19T12:17:21.471Z,101192.09
2023-01-19T12:19:55.992Z,101195.81
2023-01-19T12:22:29.911Z,101198.34
2023-01-19T12:25:26.876Z,101205.41
2023-01-19T12:27:58.028Z,101202.22
2023-01-19T12:30:30.672Z,101199.53
2023-01-19T12:33:34.288Z,101195.47
2023-01-19T12:36:07.462Z,101196.13
2023-01-19T12:38:51.352Z,101196.47
2023-01-19T12:41:48.637Z,101193.44
2023-01-19T12:44:24.211Z,101197.16
2023-01-19T12:46:56.096Z,101201.72
2023-01-19T12:49:40.252Z,101202.53
2023-01-19T12:52:22.244Z,101199.16
2023-01-19T12:55:21.899Z,101206.75
2023-01-19T12:57:56.883Z,101200.84
2023-01-19T13:00:27.564Z,101205.56
2023-01-19T13:03:01.193Z,101206.59
2023-01-19T13:05:41.077Z,101208.28
2023-01-19T13:08:14.823Z,101209.28
2023-01-19T13:11:03.575Z,101210.50
2023-01-19T13:13:36.894Z,101208.63
2023-01-19T13:16:20.739Z,101211.16
2023-01-19T13:19:07.499Z,101216.06
2023-01-19T13:21:48.515Z,101217.25
2023-01-19T13:24:25.618Z,101216.41
2023-01-19T13:26:59.781Z,101210.34
2023-01-19T13:29:36.233Z,101213.38
2023-01-19T13:32:18.579Z,101206.28
2023-01-19T13:34:53.243Z,101206.13
2023-01-19T13:37:37.172Z,101210.00
2023-01-19T13:40:09.105Z,101202.25
2023-01-19T13:42:42.265Z,101198.53
2023-01-19T13:45:19.680Z,101208.31
2023-01-19T13:47:51.859Z,101207.81
2023-01-19T13:50:24.044Z,101201.94
2023-01-19T13:52:56.580Z,101208.34
2023-01-19T13:55:29.352Z,101211.38
2023-01-19T13:58:00.151Z,101212.72
2023-01-19T14:00:31.987Z,101217.44
2023-01-19T14:03:31.988Z,101225.88
2023-01-19T14:06:02.888Z,101219.81
2023-01-19T14:08:34.855Z,101224.19
2023-01-19T14:11:06.042Z,101221.66
2023-01-19T14:13:44.162Z,101224.53
2023-01-19T14:16:18.889Z,101215.44
2023-01-19T14:19:01.637Z,101216.25
2023-01-19T14:21:45.384Z,101212.41
2023-01-19T14:24:24.057Z,101213.41
2023-01-19T14:26:57.181Z,101212.56
2023-01-19T14:29:31.757Z,101219.47
2023-01-19T14:32:21.905Z,101212.56
2023-01-19T14:35:05.200Z,101208.03
2023-01-19T14:37:39.534Z,101209.03
2023-01-19T14:40:14.708Z,101207.50
2023-01-19T14:42:49.543Z,101198.09
2023-01-19T14:45:48.304Z,101205.34
2023-01-19T14:48:21.385Z,101211.22
2023-01-19T14:51:02.703Z,101214.06
2023-01-19T14:53:38.099Z,101212.56
2023-01-19T14:56:09.023Z,101209.00
2023-01-19T14:58:39.603Z,101212.38
2023-01-19T15:01:10.884Z,101203.97
2023-01-19T15:03:45.603Z,101200.09
2023-01-19T15:06:19.697Z,101206.31
2023-01-19T15:08:51.048Z,101206.31
2023-01-19T15:11:22.162Z,101197.22
2023-01-19T15:13:53.089Z,101201.25
2023-01-19T15:16:26.637Z,101201.25
2023-01-19T15:18:58.195Z,101189.00
2023-01-19T15:21:28.458Z,101186.63
2023-01-19T15:24:01.376Z,101185.78
2023-01-19T15:26:32.001Z,101190.66
2023-01-19T15:29:02.748Z,101176.53
2023-01-19T15:31:33.298Z,101190.16
2023-01-19T15:34:03.600Z,101192.16
2023-01-19T15:36:34.517Z,101187.44
2023-01-19T15:39:05.741Z,101189.13
2023-01-19T15:41:36.544Z,101189.47
2023-01-19T15:44:09.474Z,101179.56
2023-01-19T15:46:40.066Z,101182.41
2023-01-19T15:49:10.830Z,101176.34
2023-01-19T15:51:44.444Z,101175.66
2023-01-19T15:54:16.166Z,101178.19
2023-01-19T15:56:46.475Z,101174.31
2023-01-19T15:59:17.472Z,101177.69
2023-01-19T16:01:48.165Z,101176.00
2023-01-19T16:04:18.714Z,101170.63
2023-01-19T16:06:57.792Z,101161.53
2023-01-19T16:09:28.576Z,101174.66
2023-01-19T16:12:01.238Z,101165.91
2023-01-19T16:14:32.327Z,101156.81
2023-01-19T16:17:02.856Z,101163.19
2023-01-19T16:19:33.102Z,101165.91
2023-01-19T16:22:04.200Z,101164.53
2023-01-19T16:24:34.821Z,101155.47
2023-01-19T16:27:05.811Z,101157.31
2023-01-19T16:29:37.061Z,101155.47
2023-01-19T16:32:07.830Z,101151.09
2023-01-19T16:34:39.281Z,101145.00
2023-01-19T16:37:10.520Z,101139.63
2023-01-19T16:39:40.862Z,101134.56
2023-01-19T16:42:11.205Z,101141.63
2023-01-19T16:44:41.779Z,101138.25
2023-01-19T16:47:12.691Z,101132.88
2023-01-19T16:49:43.633Z,101125.81
2023-01-19T16:52:14.113Z,101128.88
2023-01-19T16:54:45.583Z,101130.53
2023-01-19T16:57:15.925Z,101123.66
2023-01-19T16:59:46.547Z,101122.81
2023-01-19T17:02:17.801Z,101112.06
2023-01-19T17:04:49.161Z,101109.69
2023-01-19T17:07:30.595Z,101102.31
2023-01-19T17:10:01.040Z,101104.13
2023-01-19T17:12:32.387Z,101111.38
2023-01-19T17:15:02.894Z,101107.00
2023-01-19T17:17:35.848Z,101105.31
2023-01-19T17:20:07.093Z,101107.34
2023-01-19T17:22:37.744Z,101101.09
2023-01-19T17:25:08.886Z,101088.66
2023-01-19T17:27:39.140Z,101093.22
2023-01-19T17:30:10.697Z,101093.22
2023-01-19T17:32:43.555Z,101098.94
2023-01-19T17:35:13.842Z,101087.84
2023-01-19T17:37:44.482Z,101086.31
2023-01-19T17:40:15.000Z,101081.44
2023-01-19T17:42:45.364Z,101083.13
2023-01-19T17:45:15.965Z,101078.56
2023-01-19T17:47:46.264Z,101084.28
2023-01-19T17:50:20.384Z,101087.66
2023-01-19T17:52:50.741Z,101086.13
2023-01-19T17:55:20.877Z,101080.75
2023-01-19T17:57:51.486Z,101074.53
2023-01-19T18:00:22.159Z,101079.09
2023-01-19T18:02:53.693Z,101082.44
2023-01-19T18:05:24.724Z,101072.03
2023-01-19T18:07:54.998Z,101072.69
2023-01-19T18:10:25.153Z,101068.31
2023-01-19T18:12:55.453Z,101069.31
2023-01-19T18:15:25.700Z,101073.84
2023-01-19T18:17:56.008Z,101070.66
2023-01-19T18:20:26.848Z,101077.53
2023-01-19T18:22:57.157Z,101067.97
2023-01-19T18:25:27.771Z,101063.59
2023-01-19T18:27:58.304Z,101064.59
2023-01-19T18:30:28.866Z,101065.44
2023-01-19T18:32:59.133Z,101058.91
2023-01-19T18:35:30.420Z,101047.28
2023-01-19T18:38:00.996Z,101045.13
2023-01-19T18:40:31.534Z,101051.16
2023-01-19T18:43:02.414Z,101051.31
2023-01-19T18:45:32.891Z,101044.25
2023-01-19T18:48:03.369Z,101047.63
2023-01-19T18:50:34.374Z,101046.28
2023-01-19T18:53:05.397Z,101041.75
2023-01-19T18:55:37.290Z,101038.53
2023-01-19T18:58:08.232Z,101049.97
2023-01-19T19:00:38.885Z,101052.84
2023-01-19T19:03:11.332Z,101053.84
2023-01-19T19:05:42.073Z,101052.16
2023-01-19T19:08:12.586Z,101054.16
2023-01-19T19:10:45.872Z,101062.38
2023-01-19T19:13:18.662Z,101057.88
2023-01-19T19:15:49.303Z,101056.84
2023-01-19T19:18:20.084Z,101048.94
2023-01-19T19:20:51.170Z,101048.13
2023-01-19T19:23:21.435Z,101046.09
2023-01-19T19:25:52.545Z,101046.09
2023-01-19T19:28:23.051Z,101029.97
2023-01-19T19:31:04.613Z,101038.72
2023-01-19T19:33:38.081Z,101032.00
2023-01-19T19:36:09.694Z,101026.94
2023-01-19T19:38:45.812Z,101032.47
2023-01-19T19:41:19.710Z,101045.09
2023-01-19T19:43:50.284Z,101045.09
2023-01-19T19:46:23.816Z,101045.09
2023-01-19T19:48:57.474Z,101040.38
2023-01-19T19:51:29.446Z,101037.16
2023-01-19T19:54:01.438Z,101043.22
2023-01-19T19:56:33.293Z,101038.03
2023-01-19T19:59:03.972Z,101036.63
2023-01-19T20:01:34.721Z,101032.94
2023-01-19T20:04:10.397Z,101042.84
2023-01-19T20:06:45.340Z,101043.69
2023-01-19T20:09:17.380Z,101045.72
2023-01-19T20:11:49.900Z,101051.22
2023-01-19T20:14:20.314Z,101063.50
2023-01-19T20:16:51.207Z,101051.09
2023-01-19T20:19:22.303Z,101052.91
2023-01-19T20:21:53.188Z,101063.84
2023-01-19T20:24:23.936Z,101058.47
2023-01-19T20:26:55.674Z,101061.47
2023-01-19T20:29:26.691Z,101061.47
2023-01-19T20:31:57.701Z,101053.56
2023-01-19T20:34:33.521Z,101043.00
2023-01-19T20:37:05.680Z,101046.34
2023-01-19T20:39:37.650Z,101049.06
2023-01-19T20:42:12.523Z,101055.75
2023-01-19T20:44:42.930Z,101055.75
2023-01-19T20:47:13.240Z,101063.31
2023-01-19T20:49:44.024Z,101062.81
2023-01-19T20:52:14.793Z,101055.75
2023-01-19T20:54:45.085Z,101056.41
2023-01-19T20:57:15.364Z,101056.25
2023-01-19T20:59:45.852Z,101065.50
2023-01-19T21:02:17.776Z,101071.88
2023-01-19T21:04:48.275Z,101082.63
2023-01-19T21:07:18.617Z,101094.38
2023-01-19T21:09:49.159Z,101083.63
2023-01-19T21:12:21.340Z,101089.00
2023-01-19T21:14:51.884Z,101099.91
2023-01-19T21:17:22.117Z,101096.06
2023-01-19T21:19:52.444Z,101103.63
2023-01-19T21:22:23.784Z,101103.44
2023-01-19T21:24:54.401Z,101101.94
2023-01-19T21:27:24.647Z,101104.13
2023-01-19T21:29:55.147Z,101105.28
2023-01-19T21:32:29.454Z,101106.97
2023-01-19T21:34:59.740Z,101104.78
2023-01-19T21:37:32.006Z,101111.00
2023-01-19T21:40:02.475Z,101110.16
2023-01-19T21:42:33.021Z,101114.16
2023-01-19T21:45:03.445Z,101117.84
2023-01-19T21:47:38.859Z,101114.47
2023-01-19T21:50:11.216Z,101112.78
2023-01-19T21:52:42.021Z,101116.16
2023-01-19T21:55:13.386Z,101132.28
2023-01-19T21:57:43.997Z,101133.28
2023-01-19T22:00:14.804Z,101133.97
2023-01-19T22:02:58.603Z,101133.97
2023-01-19T22:05:40.937Z,101137.66
2023-01-19T22:08:11.522Z,101143.03
2023-01-19T22:10:41.727Z,101140.72
2023-01-19T22:13:12.335Z,101146.75
2023-01-19T22:15:42.679Z,101151.47
2023-01-19T22:18:17.568Z,101149.44
2023-01-19T22:20:48.119Z,101157.69
2023-01-19T22:23:21.661Z,101162.88
2023-01-19T22:25:52.119Z,101168.94
2023-01-19T22:28:23.139Z,101177.31
2023-01-19T22:30:53.524Z,101188.75
2023-01-19T22:33:23.773Z,101185.38
2023-01-19T22:35:54.046Z,101185.38
2023-01-19T22:38:24.701Z,101180.00
2023-01-19T22:40:55.418Z,101178.34
2023-01-19T22:43:25.663Z,101181.19
2023-01-19T22:45:59.982Z,101182.88
2023-01-19T22:48:32.860Z,101184.03
2023-01-19T22:51:04.276Z,101184.72
2023-01-19T22:53:34.681Z,101192.78
2023-01-19T22:56:23.231Z,101190.75
2023-01-19T22:58:54.242Z,101194.09
2023-01-19T23:01:34.283Z,101187.41
2023-01-19T23:04:08.805Z,101191.09
2023-01-19T23:06:39.551Z,101191.56
2023-01-19T23:09:13.404Z,101193.94
2023-01-19T23:11:48.973Z,101198.16
2023-01-19T23:14:21.816Z,101194.63
2023-01-19T23:16:55.350Z,101198.81
2023-01-19T23:19:25.886Z,101194.44
2023-01-19T23:21:56.614Z,101197.31
2023-01-19T23:24:26.951Z,101197.81
2023-01-19T23:26:58.061Z,101192.13
2023-01-19T23:29:28.397Z,101201.88
2023-01-19T23:31:58.721Z,101212.25
2023-01-19T23:34:29.537Z,101212.25
2023-01-19T23:37:00.415Z,101229.06
2023-01-19T23:39:33.700Z,101230.06
2023-01-19T23:42:08.615Z,101231.13
2023-01-19T23:44:39.372Z,101229.44
2023-01-19T23:47:10.276Z,101229.75
2023-01-19T23:49:41.211Z,101237.66
2023-01-19T23:52:11.608Z,101233.97
2023-01-19T23:54:42.613Z,101231.94
2023-01-19T23:57:12.955Z,101234.19
2023-01-19T23:59:52.275Z,101239.25
